Flugplatz Dinslaken/Schwarze Heide

Für EDLD sind keine METAR/TAF Berichte vorhanden.
Es werden die Flugwettermeldungen vom Flugplatz Düsseldorf International in 37 km Entfernung angezeigt.

Bericht für EDDL

vom 07.12. um 18:20 UTC

Wind 16 kt aus 150°

Sichtweite 10 km oder mehr

gute Sicht, keine Wolken < 5000 ft, keine CB, keine Wettererscheinungen (CAVOK)

Temperatur 4.0°C

Taupunkt 0.0°C

Luftfeuchtigkeit 75%

Luftdruck 1002 hPa

EDDL 071820Z 15016KT 120V180 CAVOK 04/00 Q1002 TEMPO 15020G30KT

Prognose für EDDL

vom 07.12. um 17:00 UTC

Zwischen 18:00 UTC und 02:00 UTC

Wind 15 kt aus 150° in Böen 25 kt

Sichtweite 10 km oder mehr

aufgelockert bewölkt in 2000 ft


Zwischen 20:00 UTC und 02:00 UTC zeitweise mit einer Wahrscheinlichkeit von 30%

Wind 20 kt aus 150° in Böen 30 kt

Regen

aufgebrochene Bewölkung in 1400 ft


Am 08.12. zwischen 02:00 und 05:00 UTC übergehend zu

Wind 10 kt aus 170°

Sichtweite 10 km oder mehr

aufgelockert bewölkt in 2000 ft

TAF EDDL 071700Z 0718/0824 15015G25KT 9999 SCT020 PROB30 TEMPO 0720/0802 15020G30KT RA BKN014 BECMG 0802/0805 17010KT
Impressum